sensor_id;sensor_type;location;lat;lon;timestamp;pressure;altitude;pressure_sealevel;temperature;humidity
36798;BME280;22748;8.426;99.512;2022-11-23T00:02:08;100526.09;;;27.90;70.83
36798;BME280;22748;8.426;99.512;2022-11-23T00:04:41;100539.28;;;27.92;70.39
36798;BME280;22748;8.426;99.512;2022-11-23T00:07:13;100541.16;;;27.91;70.83
36798;BME280;22748;8.426;99.512;2022-11-23T00:09:44;100548.19;;;27.92;70.94
36798;BME280;22748;8.426;99.512;2022-11-23T00:12:15;100549.03;;;27.93;70.80
36798;BME280;22748;8.426;99.512;2022-11-23T00:14:45;100555.22;;;27.93;70.86
36798;BME280;22748;8.426;99.512;2022-11-23T00:17:16;100557.25;;;27.91;70.79
36798;BME280;22748;8.426;99.512;2022-11-23T00:19:47;100559.31;;;27.89;70.88
36798;BME280;22748;8.426;99.512;2022-11-23T00:22:20;100556.03;;;27.87;70.39
36798;BME280;22748;8.426;99.512;2022-11-23T00:24:52;100560.38;;;27.88;70.95
36798;BME280;22748;8.426;99.512;2022-11-23T00:27:21;100557.69;;;27.88;70.47
36798;BME280;22748;8.426;99.512;2022-11-23T00:29:52;100564.69;;;27.89;70.92
36798;BME280;22748;8.426;99.512;2022-11-23T00:32:21;100559.56;;;27.87;70.34
36798;BME280;22748;8.426;99.512;2022-11-23T00:34:50;100564.69;;;27.89;70.68
36798;BME280;22748;8.426;99.512;2022-11-23T00:37:23;100570.06;;;27.89;70.91
36798;BME280;22748;8.426;99.512;2022-11-23T00:39:54;100577.09;;;27.90;71.00
36798;BME280;22748;8.426;99.512;2022-11-23T00:42:24;100577.28;;;27.88;70.56
36798;BME280;22748;8.426;99.512;2022-11-23T00:44:54;100575.84;;;27.86;71.01
36798;BME280;22748;8.426;99.512;2022-11-23T00:47:25;100585.72;;;27.79;70.97
36798;BME280;22748;8.426;99.512;2022-11-23T00:49:55;100586.72;;;27.78;70.96
36798;BME280;22748;8.426;99.512;2022-11-23T00:52:28;100589.84;;;27.81;70.96
36798;BME280;22748;8.426;99.512;2022-11-23T00:54:57;100594.78;;;27.84;70.91
36798;BME280;22748;8.426;99.512;2022-11-23T00:57:26;100595.25;;;27.88;70.96
36798;BME280;22748;8.426;99.512;2022-11-23T00:59:57;100593.19;;;27.90;71.04
36798;BME280;22748;8.426;99.512;2022-11-23T01:02:40;100585.16;;;27.90;71.34
36798;BME280;22748;8.426;99.512;2022-11-23T01:05:21;100602.69;;;27.93;71.32
36798;BME280;22748;8.426;99.512;2022-11-23T01:08:06;100607.25;;;27.92;71.33
36798;BME280;22748;8.426;99.512;2022-11-23T01:10:39;100602.69;;;27.93;71.24
36798;BME280;22748;8.426;99.512;2022-11-23T01:13:21;100599.81;;;27.94;70.80
36798;BME280;22748;8.426;99.512;2022-11-23T01:16:03;100599.81;;;27.94;71.07
36798;BME280;22748;8.426;99.512;2022-11-23T01:18:40;100595.28;;;27.95;70.65
36798;BME280;22748;8.426;99.512;2022-11-23T01:21:22;100604.97;;;27.96;71.06
36798;BME280;22748;8.426;99.512;2022-11-23T01:27:58;100619.25;;;27.96;70.85
36798;BME280;22748;8.426;99.512;2022-11-23T20:14:36;100452.97;;;25.31;83.92
36798;BME280;22748;8.426;99.512;2022-11-23T20:17:06;100457.69;;;25.50;83.61
36798;BME280;22748;8.426;99.512;2022-11-23T20:19:37;100463.47;;;25.75;83.34
36798;BME280;22748;8.426;99.512;2022-11-23T20:22:08;100454.88;;;26.01;81.87
36798;BME280;22748;8.426;99.512;2022-11-23T20:24:38;100458.75;;;26.27;81.30
36798;BME280;22748;8.426;99.512;2022-11-23T20:27:09;100451.66;;;26.47;79.79
36798;BME280;22748;8.426;99.512;2022-11-23T20:29:43;100458.19;;;26.66;79.18
36798;BME280;22748;8.426;99.512;2022-11-23T20:32:13;100450.03;;;26.81;78.57
36798;BME280;22748;8.426;99.512;2022-11-23T20:34:43;100448.44;;;26.94;78.12
36798;BME280;22748;8.426;99.512;2022-11-23T20:37:13;100451.56;;;27.04;77.49
36798;BME280;22748;8.426;99.512;2022-11-23T20:39:42;100449.31;;;27.07;77.43
36798;BME280;22748;8.426;99.512;2022-11-23T20:42:13;100446.47;;;27.16;76.57
36798;BME280;22748;8.426;99.512;2022-11-23T20:44:45;100446.50;;;27.22;76.57
36798;BME280;22748;8.426;99.512;2022-11-23T20:47:15;100446.28;;;27.24;75.88
36798;BME280;22748;8.426;99.512;2022-11-23T20:49:46;100441.72;;;27.11;76.29
36798;BME280;22748;8.426;99.512;2022-11-23T20:52:16;100441.91;;;27.16;76.02
36798;BME280;22748;8.426;99.512;2022-11-23T20:54:47;100444.44;;;27.24;75.65
36798;BME280;22748;8.426;99.512;2022-11-23T20:57:18;100446.09;;;27.32;74.89
36798;BME280;22748;8.426;99.512;2022-11-23T20:59:49;100448.19;;;27.37;74.78
36798;BME280;22748;8.426;99.512;2022-11-23T21:02:20;100446.75;;;27.41;74.54
36798;BME280;22748;8.426;99.512;2022-11-23T21:04:50;100456.22;;;27.43;74.81
36798;BME280;22748;8.426;99.512;2022-11-23T21:07:21;100449.66;;;27.46;74.30
36798;BME280;22748;8.426;99.512;2022-11-23T21:09:52;100455.63;;;27.48;74.43
36798;BME280;22748;8.426;99.512;2022-11-23T21:12:22;100456.25;;;27.50;74.78
36798;BME280;22748;8.426;99.512;2022-11-23T21:15:07;100448.81;;;27.52;74.03
36798;BME280;22748;8.426;99.512;2022-11-23T21:17:37;100451.50;;;27.52;73.97
36798;BME280;22748;8.426;99.512;2022-11-23T21:20:08;100463.06;;;27.53;73.72
36798;BME280;22748;8.426;99.512;2022-11-23T21:22:39;100461.22;;;27.53;73.59
36798;BME280;22748;8.426;99.512;2022-11-23T21:25:08;100464.53;;;27.55;73.55
36798;BME280;22748;8.426;99.512;2022-11-23T21:27:39;100455.84;;;27.53;73.78
36798;BME280;22748;8.426;99.512;2022-11-23T21:30:11;100450.88;;;27.50;73.77
36798;BME280;22748;8.426;99.512;2022-11-23T21:32:41;100461.41;;;27.52;73.62
36798;BME280;22748;8.426;99.512;2022-11-23T21:35:12;100454.19;;;27.52;73.64
36798;BME280;22748;8.426;99.512;2022-11-23T21:37:43;100470.91;;;27.54;73.56
36798;BME280;22748;8.426;99.512;2022-11-23T21:40:13;100463.91;;;27.53;73.26
36798;BME280;22748;8.426;99.512;2022-11-23T21:42:44;100466.59;;;27.53;72.93
36798;BME280;22748;8.426;99.512;2022-11-23T21:45:19;100468.44;;;27.53;73.36
36798;BME280;22748;8.426;99.512;2022-11-23T21:47:53;100465.53;;;27.54;73.22
36798;BME280;22748;8.426;99.512;2022-11-23T21:50:23;100466.38;;;27.55;72.90
36798;BME280;22748;8.426;99.512;2022-11-23T21:52:54;100466.38;;;27.55;73.05
36798;BME280;22748;8.426;99.512;2022-11-23T21:55:25;100460.16;;;27.54;73.00
36798;BME280;22748;8.426;99.512;2022-11-23T21:57:55;100469.88;;;27.55;72.89
36798;BME280;22748;8.426;99.512;2022-11-23T22:00:27;100464.53;;;27.55;73.02
36798;BME280;22748;8.426;99.512;2022-11-23T22:02:57;100467.19;;;27.55;72.89
36798;BME280;22748;8.426;99.512;2022-11-23T22:05:28;100474.22;;;27.56;72.58
36798;BME280;22748;8.426;99.512;2022-11-23T22:07:58;100474.22;;;27.56;72.89
36798;BME280;22748;8.426;99.512;2022-11-23T22:10:31;100475.03;;;27.57;72.47
36798;BME280;22748;8.426;99.512;2022-11-23T22:13:01;100469.66;;;27.57;72.80
36798;BME280;22748;8.426;99.512;2022-11-23T22:15:37;100470.50;;;27.57;72.50
36798;BME280;22748;8.426;99.512;2022-11-23T22:18:11;100474.84;;;27.58;72.45
36798;BME280;22748;8.426;99.512;2022-11-23T22:20:41;100473.81;;;27.59;72.78
36798;BME280;22748;8.426;99.512;2022-11-23T22:23:13;100467.59;;;27.59;72.66
36798;BME280;22748;8.426;99.512;2022-11-23T22:25:42;100466.78;;;27.58;72.75
36798;BME280;22748;8.426;99.512;2022-11-23T22:28:13;100448.63;;;27.60;72.82
36798;BME280;22748;8.426;99.512;2022-11-23T22:30:51;100456.06;;;27.58;72.83
36798;BME280;22748;8.426;99.512;2022-11-23T22:33:21;100456.69;;;27.60;72.54
36798;BME280;22748;8.426;99.512;2022-11-23T22:35:57;100463.09;;;27.59;72.88
36798;BME280;22748;8.426;99.512;2022-11-23T22:38:28;100461.41;;;27.58;72.30
36798;BME280;22748;8.426;99.512;2022-11-23T22:41:00;100458.75;;;27.58;72.16
36798;BME280;22748;8.426;99.512;2022-11-23T22:43:32;100461.41;;;27.58;72.08
36798;BME280;22748;8.426;99.512;2022-11-23T22:46:11;100457.91;;;27.58;72.70
36798;BME280;22748;8.426;99.512;2022-11-23T22:48:54;100450.69;;;27.58;72.64
36798;BME280;22748;8.426;99.512;2022-11-23T22:51:31;100452.34;;;27.59;72.53
36798;BME280;22748;8.426;99.512;2022-11-23T22:54:04;100455.84;;;27.60;72.10
36798;BME280;22748;8.426;99.512;2022-11-23T22:56:34;100456.88;;;27.59;72.41
36798;BME280;22748;8.426;99.512;2022-11-23T22:59:12;100461.41;;;27.58;72.10
36798;BME280;22748;8.426;99.512;2022-11-23T23:01:51;100465.97;;;27.58;72.31
36798;BME280;22748;8.426;99.512;2022-11-23T23:04:24;100460.59;;;27.58;72.08
36798;BME280;22748;8.426;99.512;2022-11-23T23:07:00;100461.84;;;27.55;72.20
36798;BME280;22748;8.426;99.512;2022-11-23T23:09:33;100466.38;;;27.55;72.40
36798;BME280;22748;8.426;99.512;2022-11-23T23:12:03;100471.94;;;27.53;71.97
36798;BME280;22748;8.426;99.512;2022-11-23T23:14:41;100478.31;;;27.52;72.47
36798;BME280;22748;8.426;99.512;2022-11-23T23:17:23;100475.00;;;27.50;72.50
36798;BME280;22748;8.426;99.512;2022-11-23T23:19:56;100480.38;;;27.50;71.96
36798;BME280;22748;8.426;99.512;2022-11-23T23:22:28;100485.13;;;27.48;71.92
36798;BME280;22748;8.426;99.512;2022-11-23T23:24:59;100491.72;;;27.45;71.98
36798;BME280;22748;8.426;99.512;2022-11-23T23:27:30;100490.28;;;27.43;72.57
36798;BME280;22748;8.426;99.512;2022-11-23T23:29:59;100485.97;;;27.42;72.17
36798;BME280;22748;8.426;99.512;2022-11-23T23:32:32;100478.28;;;27.39;72.16
36798;BME280;22748;8.426;99.512;2022-11-23T23:35:03;100485.72;;;27.37;72.45
36798;BME280;22748;8.426;99.512;2022-11-23T23:37:33;100488.19;;;27.32;72.19
36798;BME280;22748;8.426;99.512;2022-11-23T23:40:03;100498.47;;;27.28;72.61
36798;BME280;22748;8.426;99.512;2022-11-23T23:42:34;100507.13;;;27.23;72.76
36798;BME280;22748;8.426;99.512;2022-11-23T23:45:04;100510.00;;;27.22;72.45
36798;BME280;22748;8.426;99.512;2022-11-23T23:47:35;100516.22;;;27.22;72.82
36798;BME280;22748;8.426;99.512;2022-11-23T23:50:07;100521.75;;;27.21;72.33
36798;BME280;22748;8.426;99.512;2022-11-23T23:52:37;100524.41;;;27.21;72.89
36798;BME280;22748;8.426;99.512;2022-11-23T23:55:08;100534.31;;;27.20;72.87
36798;BME280;22748;8.426;99.512;2022-11-23T23:57:37;100537.00;;;27.20;72.80
